createdAt,value
2022-10-09T00:00:26.011Z,7.9
2022-10-09T00:05:32.454Z,7.8
2022-10-09T00:11:22.849Z,7.8
2022-10-09T00:16:05.215Z,7.7
2022-10-09T00:20:51.647Z,7.7
2022-10-09T00:25:58.019Z,7.6
2022-10-09T00:31:04.507Z,7.6
2022-10-09T00:36:18.417Z,7.5
2022-10-09T00:46:27.328Z,7.4
2022-10-09T00:51:23.754Z,7.3
2022-10-09T00:56:40.147Z,7.3
2022-10-09T01:01:36.622Z,7.2
2022-10-09T01:06:42.925Z,7.2
2022-10-09T01:11:49.267Z,7.1
2022-10-09T01:17:05.782Z,7.0
2022-10-09T01:22:12.195Z,7.0
2022-10-09T01:27:18.553Z,7.0
2022-10-09T01:32:38.950Z,6.9
2022-10-09T01:37:21.297Z,6.9
2022-10-09T01:52:51.204Z,6.7
2022-10-09T01:58:01.201Z,6.7
2022-10-09T02:03:03.660Z,6.6
2022-10-09T02:11:33.909Z,6.6
2022-10-09T02:13:17.855Z,6.5
2022-10-09T02:18:14.228Z,6.5
2022-10-09T02:23:30.698Z,6.4
2022-10-09T02:28:37.180Z,6.4
2022-10-09T02:38:50.449Z,6.3
2022-10-09T02:43:47.857Z,6.2
2022-10-09T02:48:54.379Z,6.2
2022-10-09T02:54:10.891Z,6.2
2022-10-09T02:59:21.308Z,6.1
2022-10-09T03:04:27.669Z,6.1
2022-10-09T03:09:33.582Z,6.0
2022-10-09T03:14:40.635Z,6.0
2022-10-09T03:24:39.388Z,5.9
2022-10-09T03:31:39.743Z,5.8
2022-10-09T03:35:02.164Z,5.9
2022-10-09T03:40:28.590Z,5.8
2022-10-09T03:45:04.910Z,5.8
2022-10-09T03:50:11.428Z,5.7
2022-10-09T03:55:27.812Z,5.6
2022-10-09T04:00:38.295Z,5.6
2022-10-09T04:05:40.594Z,5.6
2022-10-09T04:10:46.950Z,5.5
2022-10-09T04:15:53.495Z,5.5
2022-10-09T04:20:59.848Z,5.5
2022-10-09T04:26:06.333Z,5.4
2022-10-09T04:31:16.787Z,5.4
2022-10-09T04:36:19.123Z,5.4
2022-10-09T04:41:25.518Z,5.3
2022-10-09T04:46:51.931Z,5.3
2022-10-09T04:52:40.394Z,5.2
2022-10-09T04:56:46.200Z,5.2
2022-10-09T05:01:52.756Z,5.1
2022-10-09T05:07:19.108Z,5.1
2022-10-09T05:12:49.818Z,5.1
2022-10-09T05:17:14.620Z,5.0
2022-10-09T05:22:17.229Z,5.0
2022-10-09T05:27:24.705Z,5.0
2022-10-09T05:32:31.122Z,4.9
2022-10-09T05:37:51.600Z,4.9
2022-10-09T05:42:33.945Z,4.9
2022-10-09T05:47:50.366Z,4.8
2022-10-09T05:52:56.718Z,4.8
2022-10-09T05:58:07.114Z,4.8
2022-10-09T06:02:59.504Z,4.7
2022-10-09T06:08:14.873Z,4.7
2022-10-09T06:18:49.847Z,4.7
2022-10-09T06:29:05.592Z,4.7
2022-10-09T06:33:52.969Z,4.7
2022-10-09T06:38:59.320Z,4.7
2022-10-09T06:44:05.708Z,4.7
2022-10-09T06:49:12.102Z,4.7
2022-10-09T06:54:18.613Z,4.7
2022-10-09T06:59:25.000Z,4.8
2022-10-09T07:04:21.383Z,4.9
2022-10-09T07:09:41.778Z,4.9
2022-10-09T07:14:44.211Z,5.0
2022-10-09T07:20:04.744Z,5.1
2022-10-09T07:24:57.191Z,5.2
2022-10-09T07:30:03.568Z,5.3
2022-10-09T07:35:34.021Z,5.4
2022-10-09T07:40:06.301Z,5.6
2022-10-09T07:45:12.696Z,5.9
2022-10-09T07:50:29.319Z,6.4
2022-10-09T07:55:25.711Z,7.3
2022-10-09T08:00:42.183Z,8.5
2022-10-09T08:05:48.564Z,9.6
2022-10-09T08:10:54.972Z,10.8
2022-10-09T08:16:01.494Z,12.0
2022-10-09T08:26:14.157Z,14.3
2022-10-09T08:31:40.677Z,15.3
2022-10-09T08:36:27.005Z,16.3
2022-10-09T08:41:33.428Z,17.3
2022-10-09T08:46:29.768Z,18.1
2022-10-09T08:51:36.143Z,18.9
2022-10-09T08:56:52.652Z,19.5
2022-10-09T09:01:59.261Z,20.2
2022-10-09T09:07:05.707Z,20.8
2022-10-09T09:12:02.092Z,21.4
2022-10-09T09:22:50.459Z,21.9
2022-10-09T09:33:12.827Z,22.7
2022-10-09T09:38:09.204Z,23.3
2022-10-09T09:43:24.645Z,23.9
2022-10-09T09:48:33.571Z,24.7
2022-10-09T09:54:00.057Z,25.3
2022-10-09T09:58:36.516Z,25.8
2022-10-09T10:03:56.975Z,26.4
2022-10-09T10:08:59.355Z,26.9
2022-10-09T10:14:25.781Z,27.4
2022-10-09T10:19:12.187Z,27.7
2022-10-09T10:24:18.631Z,28.1
2022-10-09T10:29:25.025Z,28.3
2022-10-09T10:34:21.467Z,28.6
2022-10-09T10:39:37.841Z,28.8
2022-10-09T10:44:34.196Z,29.1
2022-10-09T10:49:39.601Z,29.4
2022-10-09T10:54:46.242Z,29.7
2022-10-09T10:59:53.723Z,30.0
2022-10-09T11:05:10.254Z,30.2
2022-10-09T11:10:06.689Z,30.6
2022-10-09T11:15:23.105Z,30.7
2022-10-09T11:20:19.491Z,31.0
2022-10-09T11:25:39.441Z,31.3
2022-10-09T11:35:52.220Z,31.7
2022-10-09T11:40:58.566Z,31.7
2022-10-09T11:46:04.974Z,31.8
2022-10-09T11:51:11.349Z,31.8
2022-10-09T11:56:17.768Z,31.8
2022-10-09T12:01:28.312Z,31.8
2022-10-09T12:06:32.132Z,31.7
2022-10-09T12:11:42.494Z,31.6
2022-10-09T12:16:46.487Z,31.6
2022-10-09T12:21:56.004Z,31.4
2022-10-09T12:27:02.627Z,31.2
2022-10-09T12:32:09.110Z,31.0
2022-10-09T12:37:15.649Z,30.7
2022-10-09T12:42:22.129Z,30.5
2022-10-09T12:47:28.419Z,30.3
2022-10-09T12:52:38.835Z,30.0
2022-10-09T12:57:42.773Z,29.7
2022-10-09T13:02:53.829Z,29.5
2022-10-09T13:07:59.577Z,29.3
2022-10-09T13:13:05.924Z,29.1
2022-10-09T13:18:09.875Z,29.0
2022-10-09T13:23:15.571Z,28.9
2022-10-09T13:28:22.962Z,28.8
2022-10-09T13:33:33.337Z,28.7
2022-10-09T13:39:01.359Z,28.6
2022-10-09T13:43:43.726Z,28.5
2022-10-09T13:48:50.113Z,28.4
2022-10-09T13:53:56.498Z,28.2
2022-10-09T13:59:03.007Z,28.1
2022-10-09T14:04:09.466Z,28.0
2022-10-09T14:09:15.953Z,27.9
2022-10-09T14:14:22.367Z,27.8
2022-10-09T14:19:28.711Z,27.6
2022-10-09T14:24:35.104Z,27.4
2022-10-09T14:29:41.496Z,27.2
2022-10-09T14:34:49.431Z,27.0
2022-10-09T14:39:55.907Z,26.8
2022-10-09T14:45:27.953Z,26.5
2022-10-09T14:50:14.265Z,26.1
2022-10-09T14:55:16.703Z,25.8
2022-10-09T15:00:23.086Z,25.4
2022-10-09T15:05:53.536Z,25.0
2022-10-09T15:10:39.847Z,24.6
2022-10-09T15:15:46.211Z,24.2
2022-10-09T15:20:48.729Z,23.8
2022-10-09T15:25:55.132Z,23.4
2022-10-09T15:31:01.607Z,23.0
2022-10-09T15:36:08.090Z,22.6
2022-10-09T15:41:04.472Z,22.3
2022-10-09T15:46:20.858Z,21.9
2022-10-09T15:51:27.216Z,21.6
2022-10-09T15:56:40.232Z,21.3
2022-10-09T16:01:44.007Z,21.0
2022-10-09T16:06:50.354Z,20.7
2022-10-09T16:11:52.755Z,20.4
2022-10-09T16:17:00.761Z,20.1
2022-10-09T16:22:07.148Z,19.9
2022-10-09T16:27:15.126Z,19.6
2022-10-09T16:32:21.467Z,19.4
2022-10-09T16:37:17.833Z,19.1
2022-10-09T16:42:34.289Z,18.9
2022-10-09T16:47:44.105Z,18.7
2022-10-09T16:52:48.673Z,18.4
2022-10-09T16:57:56.677Z,18.2
2022-10-09T17:03:03.027Z,18.0
2022-10-09T17:08:09.477Z,17.8
2022-10-09T17:13:15.987Z,17.6
2022-10-09T17:18:23.903Z,17.3
2022-10-09T17:23:34.283Z,17.1
2022-10-09T17:28:26.725Z,16.9
2022-10-09T17:39:12.450Z,16.5
2022-10-09T17:49:01.247Z,16.1
2022-10-09T17:54:11.721Z,16.0
2022-10-09T17:59:14.970Z,15.7
2022-10-09T18:04:22.946Z,15.5
2022-10-09T18:09:29.292Z,15.4
2022-10-09T18:14:39.676Z,15.2
2022-10-09T18:19:42.158Z,15.0
2022-10-09T18:25:14.133Z,14.8
2022-10-09T18:29:56.487Z,14.7
2022-10-09T18:35:02.992Z,14.5
2022-10-09T18:40:09.250Z,14.4
2022-10-09T18:45:19.187Z,14.2
2022-10-09T18:50:25.700Z,14.1
2022-10-09T18:55:33.612Z,13.9
2022-10-09T19:00:44.020Z,13.8
2022-10-09T19:05:50.418Z,13.7
2022-10-09T19:10:52.765Z,13.6
2022-10-09T19:16:30.773Z,13.5
2022-10-09T19:21:09.125Z,13.3
2022-10-09T19:26:19.053Z,13.2
2022-10-09T19:31:25.493Z,13.1
2022-10-09T19:36:31.934Z,13.0
2022-10-09T19:41:38.270Z,12.9
2022-10-09T19:49:34.529Z,12.8
2022-10-09T19:53:08.820Z,12.6
2022-10-09T19:56:59.048Z,12.5
2022-10-09T20:02:05.468Z,12.4
2022-10-09T20:07:15.423Z,12.3
2022-10-09T20:12:20.845Z,12.2
2022-10-09T20:17:32.203Z,12.1
2022-10-09T20:22:37.576Z,12.0
2022-10-09T20:27:42.579Z,11.9
2022-10-09T20:32:49.290Z,11.8
2022-10-09T20:37:56.905Z,11.7
2022-10-09T20:43:03.288Z,11.6
2022-10-09T20:48:09.641Z,11.5
2022-10-09T20:53:16.021Z,11.4
2022-10-09T20:58:22.431Z,11.3
2022-10-09T21:03:28.777Z,11.3
2022-10-09T21:08:35.159Z,11.2
2022-10-09T21:13:41.545Z,11.1
2022-10-09T21:18:37.891Z,11.0
2022-10-09T21:29:00.287Z,10.9
2022-10-09T21:34:07.089Z,10.8
2022-10-09T21:39:13.583Z,10.8
2022-10-09T21:44:19.998Z,10.7
2022-10-09T21:49:26.356Z,10.6
2022-10-09T21:54:34.314Z,10.5
2022-10-09T21:59:39.704Z,10.5
2022-10-09T22:04:47.065Z,10.4
2022-10-09T22:09:53.444Z,10.4
2022-10-09T22:14:59.962Z,10.3
2022-10-09T22:20:06.416Z,10.2
2022-10-09T22:25:12.925Z,10.2
2022-10-09T22:30:19.334Z,10.1
2022-10-09T22:35:25.698Z,10.0
2022-10-09T22:40:32.191Z,9.9
2022-10-09T22:45:38.620Z,9.9
2022-10-09T22:50:44.958Z,9.8
2022-10-09T22:55:51.334Z,9.7
2022-10-09T23:00:57.811Z,9.7
2022-10-09T23:06:04.274Z,9.6
2022-10-09T23:11:00.628Z,9.5
2022-10-09T23:16:17.087Z,9.4
2022-10-09T23:21:23.481Z,9.4
2022-10-09T23:26:29.813Z,9.3
2022-10-09T23:31:36.200Z,9.2
2022-10-09T23:36:42.541Z,9.2
2022-10-09T23:41:48.949Z,9.1
2022-10-09T23:46:55.452Z,9.0
2022-10-09T23:52:01.846Z,9.0
2022-10-09T23:57:08.209Z,8.9
